インディアナポリス の空港の天気 - METARとTAF

インディアナポリス国際空港 ( KIND / IND ) - アメリカ インディアナ州インディアナポリス
飛行場実況気象(Metar)
観測時間09/30 00:54 EDT (09/30 04:54 UTC)
風向・風速南西 4m/s
視程10km以上
天気現象
全天の8割程度の雲 雲底高度 1830m
気温10.6℃
湿度74%
気圧1010.2hPa
METARKIND 300454Z 23007KT 10SM BKN060 11/06 A2983 RMK AO2 SLP102 T01060061 401890067
過去の天気等 Google飛行場航空写真 Wunderground天気予報

過去48時間のMETAR

飛行場予報(TAF)
発表時間: 9/29 22:18 EDT (9/30 02:18 UTC)
予報対象時間: 29日22時 EDT ~ 1日2時 EDT
風向・風速西南西 5m/s
視程10km以上
全天の8割程度の雲 雲底高度 2130m
30日8時 EDT から
風向・風速南南西 6m/s 瞬間風速 11m/s
視程10km以上
全天の4割程度の雲 雲底高度 7320m
30日11時 EDT から
風向・風速西南西 7m/s 瞬間風速 12m/s
視程10km以上
全天の4割程度の雲 雲底高度 4570m
30日21時 EDT から
風向・風速西北西 5m/s
視程10km以上
少しの雲 雲底高度 5180m
KIND 300218Z 3002/0106 24009KT P6SM BKN070
FM301200 21012G21KT P6SM SCT240 WS020/23040KT
FM301500 24014G24KT P6SM SCT150
FM010100 30009KT P6SM FEW170